MMSD/SJD METAR and TAF weather

Enter ICAO airport designator
Station Type Date Time Source
MMSD METAR 2021/09/26 21:51 UTC NOAA

MMSD 262151Z 15015KT 12SM FEW040TCU 32/20 A2989 RMK 8/200 DSNT CB NW


Station Type Date Time Source
MMSD Decoded METAR 2021/09/26 21:51 UTC NOAA

San Jose Del Cabo , Mexico (MMSD) 23-09N 109-42W
Sep 26, 2021 - 05:51 PM EDT / 2021.09.26 2151 UTC
Wind: from the SSE (150 degrees) at 17 MPH (15 KT):0
Visibility: 12 mile(s):0
Sky conditions: mostly clear
Weather: Cumulonimbus clouds, towering cumulus clouds observed
Temperature: 89 F (32 C)
Dew Point: 68 F (20 C)
Relative Humidity: 49%
Pressure (altimeter): 29.89 in. Hg (1012 hPa)
ob: MMSD 262151Z 15015KT 12SM FEW040TCU 32/20 A2989 RMK 8/200 DSNT CB NW
cycle: 22

Station Type Date Time Source
MMSD TAF 2021/09/26 18:18 UTC NOAA

TAF MMSD 261711Z 2618/2718 14015KT P6SM SKC
FM270600 02010KT P6SM SKC

Example: see airport list